createdAt,value
2022-10-25T00:08:25.204Z,98566.02
2022-10-25T00:18:53.059Z,98579.14
2022-10-25T00:29:19.053Z,98595.55
2022-10-25T00:39:48.135Z,98602.27
2022-10-25T00:50:22.707Z,98587.61
2022-10-25T01:00:50.951Z,98589.64
2022-10-25T01:11:18.748Z,98583.27
2022-10-25T01:21:52.038Z,98582.41
2022-10-25T01:32:25.465Z,98584.16
2022-10-25T01:43:01.225Z,98586.04
2022-10-25T01:53:28.569Z,98587.89
2022-10-25T02:04:02.785Z,98575.88
2022-10-25T02:14:35.733Z,98583.16
2022-10-25T02:25:04.093Z,98581.74
2022-10-25T02:35:31.720Z,98578.16
2022-10-25T02:45:59.081Z,98589.02
2022-10-25T02:56:26.544Z,98590.19
2022-10-25T03:06:53.907Z,98593.77
2022-10-25T03:17:21.249Z,98594.30
2022-10-25T03:27:48.961Z,98602.98
2022-10-25T03:38:14.845Z,98616.23
2022-10-25T03:48:42.193Z,98616.96
2022-10-25T03:59:09.627Z,98618.81
2022-10-25T04:09:37.037Z,98616.65
2022-10-25T04:20:04.796Z,98619.88
2022-10-25T04:30:36.439Z,98618.41
2022-10-25T04:41:06.329Z,98619.11
2022-10-25T04:51:34.350Z,98609.88
2022-10-25T05:02:01.945Z,98602.98
2022-10-25T05:12:29.482Z,98608.04
2022-10-25T05:22:56.869Z,98610.06
2022-10-25T05:33:24.282Z,98616.73
2022-10-25T05:43:51.581Z,98628.06
2022-10-25T05:54:18.918Z,98639.31
2022-10-25T06:04:51.531Z,98649.13
2022-10-25T06:15:19.956Z,98655.33
2022-10-25T06:25:47.317Z,98670.36
2022-10-25T06:36:15.491Z,98690.80
2022-10-25T06:47:15.333Z,98708.05
2022-10-25T06:57:31.439Z,98726.88
2022-10-25T07:07:58.775Z,98728.94
2022-10-25T07:18:26.042Z,98731.52
2022-10-25T07:28:55.088Z,98731.35
2022-10-25T07:39:22.494Z,98727.88
2022-10-25T07:49:49.805Z,98717.55
2022-10-25T08:00:18.039Z,98754.52
2022-10-25T08:10:46.133Z,98774.96
2022-10-25T08:21:13.638Z,98773.85
2022-10-25T08:31:41.253Z,98754.02
2022-10-25T08:42:15.982Z,98748.30
2022-10-25T08:52:46.981Z,98749.06
2022-10-25T09:03:24.874Z,98758.39
2022-10-25T09:14:00.783Z,98747.47
2022-10-25T09:24:34.964Z,98732.80
2022-10-25T09:35:04.750Z,98729.55
2022-10-25T09:45:42.098Z,98742.58
2022-10-25T09:56:10.044Z,98748.09
2022-10-25T10:06:40.577Z,98758.58
2022-10-25T10:17:13.855Z,98766.44
2022-10-25T10:27:45.275Z,98772.13
2022-10-25T10:38:32.513Z,98762.20
2022-10-25T10:49:03.173Z,98757.56
2022-10-25T10:59:35.091Z,98750.80
2022-10-25T11:10:26.846Z,98747.58
2022-10-25T11:21:00.432Z,98744.70
2022-10-25T11:31:38.984Z,98735.45
2022-10-25T11:42:21.101Z,98733.11
2022-10-25T11:53:16.570Z,98734.90
2022-10-25T12:04:01.143Z,98735.77
2022-10-25T12:14:33.378Z,98732.05
2022-10-25T12:25:02.464Z,98728.27
2022-10-25T12:35:32.408Z,98725.55
2022-10-25T12:46:29.545Z,98719.70
2022-10-25T12:57:07.612Z,98720.86
2022-10-25T13:07:37.257Z,98722.57
2022-10-25T13:18:26.398Z,98721.74
2022-10-25T13:28:55.957Z,98729.42
2022-10-25T13:39:26.499Z,98744.52
2022-10-25T13:49:53.939Z,98751.65
2022-10-25T14:00:39.553Z,98758.47
2022-10-25T14:11:11.274Z,98755.17
2022-10-25T14:21:38.909Z,98755.95
2022-10-25T14:32:14.615Z,98753.20
2022-10-25T14:42:42.008Z,98765.45
2022-10-25T14:53:17.269Z,98778.55
2022-10-25T15:03:47.257Z,98776.66
2022-10-25T15:14:23.422Z,98778.27
2022-10-25T15:24:50.749Z,98795.38
2022-10-25T15:35:26.709Z,98798.65
2022-10-25T15:45:54.736Z,98806.03
2022-10-25T15:56:22.832Z,98818.20
2022-10-25T16:06:50.454Z,98825.19
2022-10-25T16:17:17.799Z,98829.73
2022-10-25T16:27:46.476Z,98833.77
2022-10-25T16:38:14.236Z,98836.07
2022-10-25T16:48:41.599Z,98845.67
2022-10-25T16:59:09.017Z,98853.02
2022-10-25T17:09:36.346Z,98862.89
2022-10-25T17:20:03.861Z,98867.21
2022-10-25T17:30:31.150Z,98883.56
2022-10-25T17:40:58.478Z,98896.05
2022-10-25T17:51:25.832Z,98897.82
2022-10-25T18:01:53.220Z,98905.88
2022-10-25T18:12:20.578Z,98915.16
2022-10-25T18:22:47.941Z,98919.45
2022-10-25T18:33:15.345Z,98920.75
2022-10-25T18:43:42.788Z,98921.75
2022-10-25T18:54:12.611Z,98925.55
2022-10-25T19:04:39.914Z,98927.74
2022-10-25T19:15:08.494Z,98929.64
2022-10-25T19:25:35.870Z,98936.05
2022-10-25T19:36:07.450Z,98939.17
2022-10-25T19:46:35.752Z,98938.88
2022-10-25T19:57:03.575Z,98942.65
2022-10-25T20:07:31.091Z,98946.36
2022-10-25T20:17:59.146Z,98950.00
2022-10-25T20:28:25.106Z,98963.70
2022-10-25T20:38:53.084Z,98975.21
2022-10-25T20:49:18.907Z,98967.08
2022-10-25T20:59:47.329Z,98961.95
2022-10-25T21:10:14.619Z,98970.19
2022-10-25T21:20:42.197Z,98973.44
2022-10-25T21:31:11.882Z,98974.67
2022-10-25T21:41:39.236Z,98966.16
2022-10-25T21:52:07.104Z,98963.64
2022-10-25T22:02:34.921Z,98969.84
2022-10-25T22:13:02.399Z,98960.05
2022-10-25T22:23:31.905Z,98968.95
2022-10-25T22:34:01.494Z,98968.57
2022-10-25T22:44:28.818Z,98970.04
2022-10-25T22:54:56.119Z,98973.83
2022-10-25T23:05:23.419Z,98981.25
2022-10-25T23:15:50.646Z,98989.33
2022-10-25T23:26:20.345Z,98995.81
2022-10-25T23:36:47.681Z,99001.59
2022-10-25T23:47:14.938Z,99004.91
2022-10-25T23:57:42.638Z,99013.76
